Anzahl Datensätze: 285
min. Temperatur: 0.8 °C
max. Temperatur: 18.9 °C
max. Windgeschwindigkeit: 6.3 km/h
Niederschlagsumme: 0.0 mm
| Datum |
Zeit |
Temp °C |
Feuchte % |
Taupunkt °C |
Luftdruck hPa |
Wind km/h |
Windrichtung |
Strahlung w/m² |
Niederschlag mm |
|---|---|---|---|---|---|---|---|---|---|
| 15.04.2026 | 00:02 | 4.3 | 84 | 1.8 | 1022.6 | 0.0 | SO | 0 | 0.0 |
| 15.04.2026 | 00:07 | 4.3 | 84 | 1.8 | 1022.7 | 0.0 | SO | 0 | 0.0 |
| 15.04.2026 | 00:12 | 4.1 | 85 | 1.8 | 1022.8 | 0.0 | SO | 0 | 0.0 |
| 15.04.2026 | 00:17 | 4.1 | 85 | 1.8 | 1022.8 | 0.0 | SO | 0 | 0.0 |
| 15.04.2026 | 00:22 | 4.0 | 85 | 1.7 | 1022.7 | 0.0 | SO | 0 | 0.0 |
| 15.04.2026 | 00:27 | 4.0 | 85 | 1.7 | 1022.7 | 0.0 | SO | 0 | 0.0 |
| 15.04.2026 | 00:32 | 4.0 | 86 | 1.9 | 1022.6 | 0.0 | SO | 0 | 0.0 |
| 15.04.2026 | 00:37 | 4.0 | 86 | 1.9 | 1022.6 | 0.0 | OSO | 0 | 0.0 |
| 15.04.2026 | 00:42 | 4.0 | 86 | 1.9 | 1022.6 | 0.4 | OSO | 0 | 0.0 |
| 15.04.2026 | 00:47 | 4.1 | 86 | 2.0 | 1022.6 | 0.0 | OSO | 0 | 0.0 |
| 15.04.2026 | 00:52 | 4.2 | 86 | 2.1 | 1022.6 | 0.0 | OSO | 0 | 0.0 |
| 15.04.2026 | 00:57 | 4.2 | 86 | 2.1 | 1022.5 | 0.0 | OSO | 0 | 0.0 |
| 15.04.2026 | 01:02 | 4.1 | 86 | 2.0 | 1022.6 | 0.0 | OSO | 0 | 0.0 |
| 15.04.2026 | 01:07 | 4.2 | 86 | 2.1 | 1022.6 | 0.0 | OSO | 0 | 0.0 |
| 15.04.2026 | 01:12 | 4.2 | 86 | 2.1 | 1022.6 | 0.4 | OSO | 0 | 0.0 |
| 15.04.2026 | 01:17 | 4.3 | 86 | 2.2 | 1022.6 | 0.0 | OSO | 0 | 0.0 |
| 15.04.2026 | 01:22 | 4.3 | 86 | 2.2 | 1022.7 | 0.4 | OSO | 0 | 0.0 |
| 15.04.2026 | 01:28 | 4.4 | 87 | 2.4 | 1022.6 | 0.4 | OSO | 0 | 0.0 |
| 15.04.2026 | 01:33 | 4.5 | 87 | 2.5 | 1022.6 | 0.0 | OSO | 0 | 0.0 |
| 15.04.2026 | 01:38 | 4.5 | 87 | 2.5 | 1022.5 | 0.0 | OSO | 0 | 0.0 |
| 15.04.2026 | 01:43 | 4.5 | 87 | 2.5 | 1022.5 | 0.0 | OSO | 0 | 0.0 |
| 15.04.2026 | 01:48 | 4.5 | 87 | 2.5 | 1022.4 | 0.0 | OSO | 0 | 0.0 |
| 15.04.2026 | 01:53 | 4.5 | 87 | 2.5 | 1022.4 | 0.0 | OSO | 0 | 0.0 |
| 15.04.2026 | 01:58 | 4.4 | 87 | 2.4 | 1022.4 | 0.0 | OSO | 0 | 0.0 |
| 15.04.2026 | 02:03 | 4.3 | 87 | 2.3 | 1022.4 | 0.0 | OSO | 0 | 0.0 |
| 15.04.2026 | 02:08 | 4.1 | 87 | 2.1 | 1022.4 | 0.0 | OSO | 0 | 0.0 |
| 15.04.2026 | 02:13 | 4.1 | 87 | 2.1 | 1022.4 | 0.0 | OSO | 0 | 0.0 |
| 15.04.2026 | 02:18 | 4.0 | 87 | 2.0 | 1022.5 | 0.0 | OSO | 0 | 0.0 |
| 15.04.2026 | 02:23 | 3.9 | 87 | 1.9 | 1022.5 | 0.0 | OSO | 0 | 0.0 |
| 15.04.2026 | 02:28 | 3.9 | 87 | 1.9 | 1022.5 | 0.0 | OSO | 0 | 0.0 |
| 15.04.2026 | 02:33 | 3.7 | 87 | 1.7 | 1022.6 | 0.0 | OSO | 0 | 0.0 |
| 15.04.2026 | 02:38 | 3.5 | 87 | 1.5 | 1022.6 | 0.0 | OSO | 0 | 0.0 |
| 15.04.2026 | 02:43 | 3.4 | 87 | 1.4 | 1022.5 | 0.0 | OSO | 0 | 0.0 |
| 15.04.2026 | 02:48 | 3.3 | 88 | 1.5 | 1022.5 | 0.0 | OSO | 0 | 0.0 |
| 15.04.2026 | 02:53 | 3.2 | 88 | 1.4 | 1022.5 | 0.0 | OSO | 0 | 0.0 |
| 15.04.2026 | 02:58 | 3.1 | 89 | 1.5 | 1022.5 | 0.0 | OSO | 0 | 0.0 |
| 15.04.2026 | 03:03 | 3.1 | 89 | 1.5 | 1022.4 | 0.9 | ONO | 0 | 0.0 |
| 15.04.2026 | 03:08 | 3.0 | 89 | 1.4 | 1022.4 | 0.4 | ONO | 0 | 0.0 |
| 15.04.2026 | 03:13 | 3.0 | 89 | 1.4 | 1022.4 | 0.4 | N | 0 | 0.0 |
| 15.04.2026 | 03:18 | 3.0 | 89 | 1.4 | 1022.4 | 0.4 | N | 0 | 0.0 |
| 15.04.2026 | 03:23 | 3.1 | 90 | 1.6 | 1022.4 | 0.4 | NNO | 0 | 0.0 |
| 15.04.2026 | 03:28 | 3.2 | 90 | 1.7 | 1022.4 | 0.0 | NNO | 0 | 0.0 |
| 15.04.2026 | 03:33 | 3.2 | 90 | 1.7 | 1022.3 | 0.4 | NNO | 0 | 0.0 |
| 15.04.2026 | 03:38 | 3.1 | 90 | 1.6 | 1022.2 | 0.4 | NNO | 0 | 0.0 |
| 15.04.2026 | 03:43 | 3.0 | 90 | 1.5 | 1022.2 | 0.0 | NNO | 0 | 0.0 |
| 15.04.2026 | 03:48 | 3.0 | 90 | 1.5 | 1022.1 | 0.0 | NNO | 0 | 0.0 |
| 15.04.2026 | 03:53 | 2.9 | 90 | 1.4 | 1022.1 | 0.0 | NNO | 0 | 0.0 |
| 15.04.2026 | 03:59 | 2.9 | 90 | 1.4 | 1022.1 | 0.4 | NNO | 0 | 0.0 |
| 15.04.2026 | 04:04 | 2.8 | 90 | 1.3 | 1022.1 | 0.0 | NNO | 0 | 0.0 |
| 15.04.2026 | 04:09 | 2.8 | 90 | 1.3 | 1022.2 | 0.4 | NNO | 0 | 0.0 |
| 15.04.2026 | 04:14 | 2.7 | 90 | 1.2 | 1022.2 | 0.4 | NNO | 0 | 0.0 |
| 15.04.2026 | 04:19 | 2.6 | 90 | 1.1 | 1022.2 | 0.0 | NNO | 0 | 0.0 |
| 15.04.2026 | 04:24 | 2.6 | 91 | 1.3 | 1022.2 | 0.0 | NNO | 0 | 0.0 |
| 15.04.2026 | 04:29 | 2.5 | 91 | 1.2 | 1022.2 | 0.9 | NNO | 0 | 0.0 |
| 15.04.2026 | 04:34 | 2.6 | 91 | 1.3 | 1022.3 | 0.9 | N | 0 | 0.0 |
| 15.04.2026 | 04:39 | 2.6 | 91 | 1.3 | 1022.2 | 0.4 | N | 0 | 0.0 |
| 15.04.2026 | 04:44 | 2.6 | 91 | 1.3 | 1022.2 | 0.4 | N | 0 | 0.0 |
| 15.04.2026 | 04:49 | 2.5 | 91 | 1.2 | 1022.2 | 0.4 | N | 0 | 0.0 |
| 15.04.2026 | 04:54 | 2.4 | 91 | 1.1 | 1022.2 | 0.0 | N | 0 | 0.0 |
| 15.04.2026 | 04:59 | 2.3 | 91 | 1.0 | 1022.2 | 0.4 | N | 0 | 0.0 |
| 15.04.2026 | 05:04 | 2.2 | 91 | 0.9 | 1022.2 | 0.4 | N | 0 | 0.0 |
| 15.04.2026 | 05:09 | 2.1 | 91 | 0.8 | 1022.1 | 0.0 | N | 0 | 0.0 |
| 15.04.2026 | 05:14 | 2.1 | 91 | 0.8 | 1022.2 | 0.0 | N | 0 | 0.0 |
| 15.04.2026 | 05:19 | 2.0 | 91 | 0.7 | 1022.2 | 0.0 | N | 0 | 0.0 |
| 15.04.2026 | 05:24 | 1.9 | 91 | 0.6 | 1022.2 | 0.0 | N | 0 | 0.0 |
| 15.04.2026 | 05:29 | 1.7 | 91 | 0.4 | 1022.2 | 0.0 | N | 0 | 0.0 |
| 15.04.2026 | 05:34 | 1.5 | 91 | 0.2 | 1022.3 | 0.0 | N | 0 | 0.0 |
| 15.04.2026 | 05:39 | 1.4 | 91 | 0.1 | 1022.3 | 0.0 | N | 0 | 0.0 |
| 15.04.2026 | 05:44 | 1.3 | 91 | 0.0 | 1022.2 | 0.0 | N | 0 | 0.0 |
| 15.04.2026 | 05:49 | 1.1 | 91 | -0.2 | 1022.2 | 0.0 | N | 0 | 0.0 |
| 15.04.2026 | 05:54 | 1.0 | 91 | -0.3 | 1022.2 | 0.0 | N | 0 | 0.0 |
| 15.04.2026 | 05:59 | 1.0 | 91 | -0.3 | 1022.3 | 0.0 | N | 0 | 0.0 |
| 15.04.2026 | 06:04 | 1.0 | 91 | -0.3 | 1022.3 | 0.0 | N | 0 | 0.0 |
| 15.04.2026 | 06:09 | 1.0 | 91 | -0.3 | 1022.3 | 0.4 | N | 0 | 0.0 |
| 15.04.2026 | 06:14 | 1.0 | 91 | -0.3 | 1022.3 | 0.0 | N | 0 | 0.0 |
| 15.04.2026 | 06:19 | 1.0 | 92 | -0.2 | 1022.3 | 0.0 | N | 0 | 0.0 |
| 15.04.2026 | 06:24 | 0.9 | 92 | -0.3 | 1022.3 | 0.0 | NNW | 0 | 0.0 |
| 15.04.2026 | 06:29 | 0.9 | 92 | -0.3 | 1022.4 | 0.4 | NNW | 0 | 0.0 |
| 15.04.2026 | 06:34 | 1.0 | 92 | -0.2 | 1022.4 | 0.0 | NNW | 0 | 0.0 |
| 15.04.2026 | 06:39 | 1.0 | 92 | -0.2 | 1022.4 | 0.0 | N | 0 | 0.0 |
| 15.04.2026 | 06:45 | 1.0 | 92 | -0.2 | 1022.5 | 0.0 | N | 0 | 0.0 |
| 15.04.2026 | 06:50 | 1.0 | 92 | -0.2 | 1022.5 | 0.0 | N | 5 | 0.0 |
| 15.04.2026 | 06:55 | 0.9 | 92 | -0.3 | 1022.5 | 0.0 | N | 9 | 0.0 |
| 15.04.2026 | 07:00 | 0.9 | 92 | -0.3 | 1022.5 | 0.0 | N | 11 | 0.0 |
| 15.04.2026 | 07:05 | 0.8 | 92 | -0.4 | 1022.5 | 0.0 | N | 14 | 0.0 |
| 15.04.2026 | 07:10 | 0.8 | 92 | -0.4 | 1022.5 | 0.0 | N | 18 | 0.0 |
| 15.04.2026 | 07:15 | 0.8 | 92 | -0.4 | 1022.5 | 0.0 | N | 21 | 0.0 |
| 15.04.2026 | 07:20 | 0.8 | 92 | -0.4 | 1022.6 | 0.0 | N | 25 | 0.0 |
| 15.04.2026 | 07:25 | 0.8 | 92 | -0.4 | 1022.6 | 0.0 | N | 28 | 0.0 |
| 15.04.2026 | 07:30 | 0.8 | 92 | -0.4 | 1022.7 | 0.0 | N | 32 | 0.0 |
| 15.04.2026 | 07:35 | 0.9 | 92 | -0.3 | 1022.6 | 0.0 | N | 47 | 0.0 |
| 15.04.2026 | 07:40 | 1.0 | 92 | -0.2 | 1022.6 | 0.0 | N | 62 | 0.0 |
| 15.04.2026 | 07:45 | 1.1 | 92 | -0.1 | 1022.6 | 0.0 | N | 72 | 0.0 |
| 15.04.2026 | 07:50 | 1.5 | 92 | 0.3 | 1022.6 | 0.0 | N | 86 | 0.0 |
| 15.04.2026 | 07:55 | 2.0 | 92 | 0.8 | 1022.6 | 0.0 | N | 98 | 0.0 |
| 15.04.2026 | 08:00 | 2.5 | 93 | 1.5 | 1022.6 | 0.4 | N | 114 | 0.0 |
| 15.04.2026 | 08:05 | 2.8 | 92 | 1.6 | 1022.5 | 0.0 | N | 130 | 0.0 |
| 15.04.2026 | 08:10 | 3.0 | 92 | 1.8 | 1022.6 | 0.0 | N | 88 | 0.0 |
| 15.04.2026 | 08:15 | 3.5 | 93 | 2.5 | 1022.5 | 0.0 | N | 160 | 0.0 |
| 15.04.2026 | 08:20 | 4.1 | 93 | 3.1 | 1022.6 | 0.0 | N | 178 | 0.0 |
| 15.04.2026 | 08:25 | 4.4 | 92 | 3.2 | 1022.5 | 0.4 | N | 193 | 0.0 |
| 15.04.2026 | 08:30 | 4.8 | 92 | 3.6 | 1022.5 | 0.0 | N | 209 | 0.0 |
| 15.04.2026 | 08:35 | 5.1 | 92 | 3.9 | 1022.6 | 0.4 | N | 195 | 0.0 |
| 15.04.2026 | 08:40 | 5.6 | 92 | 4.4 | 1022.6 | 0.4 | N | 251 | 0.0 |
| 15.04.2026 | 08:45 | 6.0 | 92 | 4.8 | 1022.6 | 0.4 | N | 267 | 0.0 |
| 15.04.2026 | 08:50 | 6.3 | 92 | 5.1 | 1022.6 | 0.0 | N | 248 | 0.0 |
| 15.04.2026 | 08:55 | 6.6 | 91 | 5.2 | 1022.5 | 0.4 | N | 290 | 0.0 |
| 15.04.2026 | 09:00 | 7.1 | 91 | 5.7 | 1022.6 | 0.0 | N | 297 | 0.0 |
| 15.04.2026 | 09:05 | 7.6 | 91 | 6.2 | 1022.6 | 0.4 | N | 311 | 0.0 |
| 15.04.2026 | 09:10 | 8.1 | 90 | 6.6 | 1022.6 | 0.4 | NNO | 336 | 0.0 |
| 15.04.2026 | 09:15 | 8.6 | 89 | 6.9 | 1022.6 | 0.4 | NNO | 353 | 0.0 |
| 15.04.2026 | 09:20 | 8.9 | 89 | 7.2 | 1022.6 | 0.0 | NNO | 367 | 0.0 |
| 15.04.2026 | 09:25 | 9.3 | 87 | 7.2 | 1022.5 | 0.4 | NNO | 387 | 0.0 |
| 15.04.2026 | 09:30 | 9.6 | 87 | 7.5 | 1022.6 | 0.4 | NNO | 406 | 0.0 |
| 15.04.2026 | 09:35 | 10.0 | 86 | 7.8 | 1022.6 | 0.4 | NNO | 422 | 0.0 |
| 15.04.2026 | 09:41 | 10.5 | 85 | 8.1 | 1022.6 | 0.9 | SW | 439 | 0.0 |
| 15.04.2026 | 09:46 | 10.8 | 83 | 8.0 | 1022.6 | 0.9 | S | 445 | 0.0 |
| 15.04.2026 | 09:51 | 11.1 | 82 | 8.1 | 1022.7 | 0.4 | SSO | 446 | 0.0 |
| 15.04.2026 | 09:56 | 11.5 | 81 | 8.4 | 1022.8 | 0.4 | S | 464 | 0.0 |
| 15.04.2026 | 10:01 | 11.9 | 78 | 8.2 | 1022.7 | 0.9 | S | 476 | 0.0 |
| 15.04.2026 | 10:06 | 12.2 | 77 | 8.3 | 1022.7 | 0.4 | S | 492 | 0.0 |
| 15.04.2026 | 10:11 | 12.5 | 75 | 8.2 | 1022.7 | 0.4 | SO | 482 | 0.0 |
| 15.04.2026 | 10:16 | 12.9 | 72 | 8.0 | 1022.6 | 0.0 | SO | 404 | 0.0 |
| 15.04.2026 | 10:21 | 13.1 | 70 | 7.8 | 1022.6 | 0.0 | SO | 526 | 0.0 |
| 15.04.2026 | 10:26 | 13.3 | 69 | 7.7 | 1022.6 | 0.4 | SW | 541 | 0.0 |
| 15.04.2026 | 10:31 | 13.4 | 69 | 7.8 | 1022.6 | 0.4 | S | 536 | 0.0 |
| 15.04.2026 | 10:36 | 13.7 | 67 | 7.7 | 1022.5 | 3.1 | O | 552 | 0.0 |
| 15.04.2026 | 10:41 | 14.0 | 63 | 7.1 | 1022.5 | 0.9 | NO | 578 | 0.0 |
| 15.04.2026 | 10:46 | 14.2 | 63 | 7.3 | 1022.5 | 1.8 | SO | 584 | 0.0 |
| 15.04.2026 | 10:51 | 14.3 | 62 | 7.1 | 1022.5 | 1.8 | NO | 610 | 0.0 |
| 15.04.2026 | 10:56 | 14.4 | 61 | 7.0 | 1022.5 | 0.4 | SO | 496 | 0.0 |
| 15.04.2026 | 11:01 | 14.3 | 62 | 7.1 | 1022.5 | 0.9 | OSO | 612 | 0.0 |
| 15.04.2026 | 11:06 | 14.5 | 62 | 7.3 | 1022.5 | 0.9 | O | 605 | 0.0 |
| 15.04.2026 | 11:11 | 14.6 | 62 | 7.4 | 1022.4 | 0.9 | SSW | 657 | 0.0 |
| 15.04.2026 | 11:16 | 14.7 | 63 | 7.7 | 1022.4 | 1.8 | ONO | 679 | 0.0 |
| 15.04.2026 | 11:21 | 14.7 | 61 | 7.3 | 1022.5 | 2.7 | SW | 705 | 0.0 |
| 15.04.2026 | 11:26 | 14.6 | 62 | 7.4 | 1022.4 | 0.4 | SW | 608 | 0.0 |
| 15.04.2026 | 11:31 | 14.7 | 62 | 7.5 | 1022.4 | 0.9 | NW | 373 | 0.0 |
| 15.04.2026 | 11:36 | 14.6 | 61 | 7.2 | 1022.4 | 1.3 | S | 712 | 0.0 |
| 15.04.2026 | 11:41 | 14.8 | 62 | 7.6 | 1022.2 | 1.3 | ONO | 708 | 0.0 |
| 15.04.2026 | 11:46 | 14.8 | 61 | 7.4 | 1022.3 | 1.3 | SO | 396 | 0.0 |
| 15.04.2026 | 11:51 | 14.7 | 62 | 7.5 | 1022.2 | 0.9 | ONO | 656 | 0.0 |
| 15.04.2026 | 11:56 | 14.7 | 60 | 7.0 | 1022.1 | 1.3 | NO | 585 | 0.0 |
| 15.04.2026 | 12:01 | 14.8 | 62 | 7.6 | 1022.1 | 1.3 | SO | 687 | 0.0 |
| 15.04.2026 | 12:06 | 14.9 | 60 | 7.2 | 1022.0 | 3.1 | ONO | 615 | 0.0 |
| 15.04.2026 | 12:11 | 15.0 | 60 | 7.3 | 1022.0 | 1.8 | SO | 722 | 0.0 |
| 15.04.2026 | 12:17 | 15.1 | 60 | 7.4 | 1021.9 | 0.9 | S | 816 | 0.0 |
| 15.04.2026 | 12:22 | 15.4 | 59 | 7.4 | 1021.8 | 0.9 | SO | 853 | 0.0 |
| 15.04.2026 | 12:27 | 15.5 | 58 | 7.3 | 1021.7 | 0.9 | S | 649 | 0.0 |
| 15.04.2026 | 12:32 | 15.7 | 60 | 8.0 | 1021.6 | 0.9 | SSO | 694 | 0.0 |
| 15.04.2026 | 12:37 | 16.0 | 60 | 8.2 | 1021.6 | 0.9 | O | 712 | 0.0 |
| 15.04.2026 | 12:42 | 16.2 | 59 | 8.2 | 1021.5 | 1.3 | SO | 721 | 0.0 |
| 15.04.2026 | 12:47 | 16.4 | 61 | 8.9 | 1021.4 | 1.8 | SSW | 851 | 0.0 |
| 15.04.2026 | 12:52 | 16.6 | 59 | 8.6 | 1021.3 | 1.3 | SO | 944 | 0.0 |
| 15.04.2026 | 12:57 | 16.5 | 59 | 8.5 | 1021.2 | 1.3 | S | 601 | 0.0 |
| 15.04.2026 | 13:02 | 16.3 | 59 | 8.3 | 1021.3 | 1.3 | SSW | 879 | 0.0 |
| 15.04.2026 | 13:07 | 16.1 | 60 | 8.3 | 1021.3 | 0.9 | SO | 788 | 0.0 |
| 15.04.2026 | 13:12 | 16.2 | 61 | 8.7 | 1021.2 | 1.3 | SSO | 791 | 0.0 |
| 15.04.2026 | 13:17 | 16.4 | 58 | 8.1 | 1021.1 | 0.9 | SO | 531 | 0.0 |
| 15.04.2026 | 13:22 | 16.5 | 58 | 8.2 | 1021.2 | 0.4 | SSO | 264 | 0.0 |
| 15.04.2026 | 13:27 | 16.6 | 57 | 8.0 | 1021.2 | 1.3 | SSW | 274 | 0.0 |
| 15.04.2026 | 13:32 | 16.8 | 57 | 8.2 | 1021.2 | 2.2 | S | 325 | 0.0 |
| 15.04.2026 | 13:37 | 17.0 | 57 | 8.4 | 1021.2 | 1.3 | ONO | 821 | 0.0 |
| 15.04.2026 | 13:42 | 17.0 | 56 | 8.2 | 1021.2 | 3.1 | SSW | 241 | 0.0 |
| 15.04.2026 | 13:47 | 16.8 | 58 | 8.5 | 1021.1 | 0.9 | SSW | 770 | 0.0 |
| 15.04.2026 | 13:52 | 16.7 | 57 | 8.1 | 1021.0 | 1.8 | SSW | 705 | 0.0 |
| 15.04.2026 | 13:57 | 16.5 | 58 | 8.2 | 1021.1 | 1.3 | ONO | 661 | 0.0 |
| 15.04.2026 | 14:02 | 16.5 | 57 | 8.0 | 1021.0 | 0.4 | SO | 615 | 0.0 |
| 15.04.2026 | 14:07 | 16.6 | 59 | 8.6 | 1021.0 | 0.0 | O | 854 | 0.0 |
| 15.04.2026 | 14:12 | 17.0 | 60 | 9.2 | 1021.0 | 0.9 | S | 751 | 0.0 |
| 15.04.2026 | 14:17 | 17.4 | 59 | 9.3 | 1021.0 | 0.9 | S | 691 | 0.0 |
| 15.04.2026 | 14:22 | 17.5 | 56 | 8.6 | 1020.9 | 3.1 | SSW | 698 | 0.0 |
| 15.04.2026 | 14:27 | 17.3 | 57 | 8.7 | 1020.9 | 0.9 | SW | 338 | 0.0 |
| 15.04.2026 | 14:32 | 17.1 | 58 | 8.8 | 1020.8 | 1.8 | SSO | 684 | 0.0 |
| 15.04.2026 | 14:37 | 17.4 | 57 | 8.8 | 1020.8 | 1.8 | N | 684 | 0.0 |
| 15.04.2026 | 14:42 | 17.4 | 55 | 8.3 | 1020.7 | 1.8 | SSW | 621 | 0.0 |
| 15.04.2026 | 14:47 | 17.1 | 58 | 8.8 | 1020.6 | 0.4 | S | 605 | 0.0 |
| 15.04.2026 | 14:52 | 17.1 | 57 | 8.5 | 1020.7 | 1.8 | S | 636 | 0.0 |
| 15.04.2026 | 14:57 | 17.1 | 57 | 8.5 | 1020.6 | 1.8 | SSO | 570 | 0.0 |
| 15.04.2026 | 15:02 | 17.1 | 58 | 8.8 | 1020.6 | 1.8 | NNO | 401 | 0.0 |
| 15.04.2026 | 15:07 | 17.4 | 59 | 9.3 | 1020.6 | 1.3 | S | 831 | 0.0 |
| 15.04.2026 | 15:13 | 17.5 | 59 | 9.4 | 1020.5 | 0.9 | ONO | 780 | 0.0 |
| 15.04.2026 | 15:18 | 17.8 | 57 | 9.2 | 1020.5 | 0.4 | NO | 911 | 0.0 |
| 15.04.2026 | 15:23 | 18.1 | 55 | 8.9 | 1020.4 | 0.9 | SSW | 847 | 0.0 |
| 15.04.2026 | 15:28 | 18.0 | 56 | 9.1 | 1020.4 | 1.3 | S | 257 | 0.0 |
| 15.04.2026 | 15:33 | 17.6 | 56 | 8.7 | 1020.4 | 0.4 | SSO | 225 | 0.0 |
| 15.04.2026 | 15:38 | 17.3 | 58 | 9.0 | 1020.3 | 0.4 | S | 831 | 0.0 |
| 15.04.2026 | 15:43 | 17.4 | 58 | 9.1 | 1020.3 | 0.9 | SSO | 758 | 0.0 |
| 15.04.2026 | 15:48 | 17.3 | 57 | 8.7 | 1020.2 | 1.8 | S | 346 | 0.0 |
| 15.04.2026 | 15:53 | 17.3 | 57 | 8.7 | 1020.0 | 2.2 | SW | 538 | 0.0 |
| 15.04.2026 | 15:58 | 17.4 | 57 | 8.8 | 1020.0 | 0.9 | NNO | 649 | 0.0 |
| 15.04.2026 | 16:03 | 17.3 | 57 | 8.7 | 1019.9 | 0.4 | SSO | 186 | 0.0 |
| 15.04.2026 | 16:08 | 17.3 | 56 | 8.4 | 1019.8 | 1.3 | O | 722 | 0.0 |
| 15.04.2026 | 16:13 | 17.5 | 59 | 9.4 | 1019.7 | 0.4 | SSO | 701 | 0.0 |
| 15.04.2026 | 16:18 | 18.0 | 58 | 9.6 | 1019.7 | 0.4 | SSW | 728 | 0.0 |
| 15.04.2026 | 16:23 | 18.5 | 57 | 9.8 | 1019.7 | 2.7 | S | 754 | 0.0 |
| 15.04.2026 | 16:28 | 18.9 | 54 | 9.4 | 1019.7 | 1.8 | SSW | 761 | 0.0 |
| 15.04.2026 | 16:33 | 18.9 | 54 | 9.4 | 1019.7 | 0.9 | S | 715 | 0.0 |
| 15.04.2026 | 16:38 | 18.8 | 54 | 9.3 | 1019.7 | 2.2 | SSW | 260 | 0.0 |
| 15.04.2026 | 16:43 | 18.3 | 55 | 9.1 | 1019.7 | 1.3 | S | 265 | 0.0 |
| 15.04.2026 | 16:48 | 17.9 | 57 | 9.3 | 1019.7 | 0.4 | SO | 250 | 0.0 |
| 15.04.2026 | 16:53 | 17.9 | 58 | 9.5 | 1019.6 | 1.8 | S | 647 | 0.0 |
| 15.04.2026 | 16:58 | 18.3 | 57 | 9.6 | 1019.5 | 3.1 | O | 543 | 0.0 |
| 15.04.2026 | 17:03 | 18.3 | 55 | 9.1 | 1019.5 | 0.4 | SO | 490 | 0.0 |
| 15.04.2026 | 17:08 | 18.3 | 55 | 9.1 | 1019.4 | 2.2 | SSW | 534 | 0.0 |
| 15.04.2026 | 17:13 | 18.1 | 54 | 8.6 | 1019.3 | 1.3 | S | 97 | 0.0 |
| 15.04.2026 | 17:18 | 17.7 | 55 | 8.5 | 1019.4 | 0.4 | SSO | 104 | 0.0 |
| 15.04.2026 | 17:23 | 17.4 | 56 | 8.5 | 1019.3 | 0.9 | SSO | 350 | 0.0 |
| 15.04.2026 | 17:28 | 17.1 | 58 | 8.8 | 1019.2 | 3.1 | S | 195 | 0.0 |
| 15.04.2026 | 17:33 | 17.0 | 57 | 8.4 | 1019.2 | 2.7 | SSO | 149 | 0.0 |
| 15.04.2026 | 17:38 | 16.9 | 58 | 8.6 | 1019.3 | 1.3 | SSW | 190 | 0.0 |
| 15.04.2026 | 17:43 | 16.9 | 60 | 9.1 | 1019.3 | 0.9 | S | 299 | 0.0 |
| 15.04.2026 | 17:48 | 17.1 | 59 | 9.0 | 1019.4 | 1.8 | SSO | 506 | 0.0 |
| 15.04.2026 | 17:53 | 17.5 | 59 | 9.4 | 1019.4 | 0.9 | SSO | 352 | 0.0 |
| 15.04.2026 | 17:58 | 17.8 | 58 | 9.4 | 1019.4 | 0.4 | S | 497 | 0.0 |
| 15.04.2026 | 18:04 | 18.1 | 56 | 9.2 | 1019.4 | 1.3 | SSW | 387 | 0.0 |
| 15.04.2026 | 18:09 | 18.0 | 55 | 8.8 | 1019.4 | 2.2 | SO | 188 | 0.0 |
| 15.04.2026 | 18:14 | 17.9 | 56 | 9.0 | 1019.4 | 1.3 | SSW | 137 | 0.0 |
| 15.04.2026 | 18:19 | 17.6 | 56 | 8.7 | 1019.5 | 0.4 | SO | 102 | 0.0 |
| 15.04.2026 | 18:24 | 17.3 | 57 | 8.7 | 1019.6 | 0.9 | S | 91 | 0.0 |
| 15.04.2026 | 18:29 | 17.1 | 58 | 8.8 | 1019.6 | 0.9 | SSO | 102 | 0.0 |
| 15.04.2026 | 18:34 | 16.9 | 59 | 8.8 | 1019.6 | 1.3 | S | 102 | 0.0 |
| 15.04.2026 | 18:39 | 16.7 | 59 | 8.6 | 1019.6 | 0.9 | SO | 102 | 0.0 |
| 15.04.2026 | 18:44 | 16.5 | 60 | 8.7 | 1019.6 | 0.9 | SSW | 95 | 0.0 |
| 15.04.2026 | 18:49 | 16.4 | 61 | 8.9 | 1019.7 | 1.3 | S | 98 | 0.0 |
| 15.04.2026 | 18:54 | 16.4 | 61 | 8.9 | 1019.7 | 0.9 | S | 84 | 0.0 |
| 15.04.2026 | 18:59 | 16.4 | 61 | 8.9 | 1019.7 | 1.3 | S | 83 | 0.0 |
| 15.04.2026 | 19:04 | 16.4 | 62 | 9.1 | 1019.6 | 0.9 | S | 86 | 0.0 |
| 15.04.2026 | 19:09 | 16.4 | 62 | 9.1 | 1019.6 | 0.9 | S | 81 | 0.0 |
| 15.04.2026 | 19:14 | 16.4 | 61 | 8.9 | 1019.7 | 1.8 | SSW | 65 | 0.0 |
| 15.04.2026 | 19:19 | 16.4 | 62 | 9.1 | 1019.7 | 2.2 | SW | 62 | 0.0 |
| 15.04.2026 | 19:24 | 16.1 | 62 | 8.8 | 1019.7 | 1.3 | SW | 56 | 0.0 |
| 15.04.2026 | 19:29 | 15.8 | 63 | 8.8 | 1019.7 | 0.4 | S | 54 | 0.0 |
| 15.04.2026 | 19:34 | 15.6 | 64 | 8.8 | 1019.7 | 1.3 | SSW | 53 | 0.0 |
| 15.04.2026 | 19:39 | 15.5 | 64 | 8.7 | 1019.7 | 0.4 | S | 54 | 0.0 |
| 15.04.2026 | 19:44 | 15.4 | 64 | 8.6 | 1019.7 | 0.4 | SSW | 56 | 0.0 |
| 15.04.2026 | 19:49 | 15.4 | 64 | 8.6 | 1019.7 | 0.4 | S | 56 | 0.0 |
| 15.04.2026 | 19:54 | 15.5 | 64 | 8.7 | 1019.8 | 0.9 | S | 49 | 0.0 |
| 15.04.2026 | 19:59 | 15.5 | 64 | 8.7 | 1019.8 | 0.9 | S | 35 | 0.0 |
| 15.04.2026 | 20:04 | 15.5 | 64 | 8.7 | 1019.8 | 0.0 | S | 25 | 0.0 |
| 15.04.2026 | 20:09 | 15.4 | 65 | 8.9 | 1019.8 | 0.4 | S | 19 | 0.0 |
| 15.04.2026 | 20:14 | 15.1 | 66 | 8.8 | 1019.7 | 0.0 | S | 18 | 0.0 |
| 15.04.2026 | 20:19 | 14.8 | 67 | 8.7 | 1019.8 | 0.0 | S | 14 | 0.0 |
| 15.04.2026 | 20:29 | 14.1 | 69 | 8.5 | 1019.7 | 0.0 | S | 7 | 0.0 |
| 15.04.2026 | 20:34 | 13.8 | 70 | 8.4 | 1019.8 | 0.0 | S | 5 | 0.0 |
| 15.04.2026 | 20:39 | 13.4 | 71 | 8.2 | 1019.8 | 0.0 | S | 0 | 0.0 |
| 15.04.2026 | 20:44 | 12.9 | 72 | 8.0 | 1019.8 | 0.4 | S | 0 | 0.0 |
| 15.04.2026 | 20:49 | 12.5 | 74 | 8.0 | 1019.8 | 0.4 | S | 0 | 0.0 |
| 15.04.2026 | 20:55 | 12.2 | 76 | 8.1 | 1019.8 | 0.4 | S | 0 | 0.0 |
| 15.04.2026 | 21:00 | 12.0 | 77 | 8.1 | 1019.8 | 0.0 | S | 0 | 0.0 |
| 15.04.2026 | 21:05 | 11.8 | 77 | 7.9 | 1019.9 | 0.4 | S | 0 | 0.0 |
| 15.04.2026 | 21:10 | 11.7 | 78 | 8.0 | 1019.9 | 0.4 | S | 0 | 0.0 |
| 15.04.2026 | 21:15 | 11.6 | 78 | 7.9 | 1020.0 | 0.4 | S | 0 | 0.0 |
| 15.04.2026 | 21:20 | 11.6 | 78 | 7.9 | 1020.0 | 0.0 | S | 0 | 0.0 |
| 15.04.2026 | 21:25 | 11.5 | 78 | 7.8 | 1020.1 | 0.0 | S | 0 | 0.0 |
| 15.04.2026 | 21:30 | 11.5 | 79 | 8.0 | 1020.1 | 0.0 | S | 0 | 0.0 |
| 15.04.2026 | 21:35 | 11.5 | 79 | 8.0 | 1019.9 | 0.0 | S | 0 | 0.0 |
| 15.04.2026 | 21:40 | 11.4 | 80 | 8.1 | 1019.9 | 0.4 | S | 0 | 0.0 |
| 15.04.2026 | 21:45 | 11.2 | 81 | 8.1 | 1020.0 | 0.4 | S | 0 | 0.0 |
| 15.04.2026 | 21:50 | 11.1 | 81 | 8.0 | 1019.9 | 0.4 | S | 0 | 0.0 |
| 15.04.2026 | 21:55 | 11.1 | 81 | 8.0 | 1019.9 | 0.0 | S | 0 | 0.0 |
| 15.04.2026 | 22:00 | 11.0 | 82 | 8.0 | 1020.0 | 0.0 | S | 0 | 0.0 |
| 15.04.2026 | 22:05 | 10.9 | 81 | 7.8 | 1020.0 | 0.0 | S | 0 | 0.0 |
| 15.04.2026 | 22:10 | 10.9 | 82 | 7.9 | 1020.1 | 0.0 | S | 0 | 0.0 |
| 15.04.2026 | 22:15 | 10.8 | 82 | 7.9 | 1020.1 | 0.0 | S | 0 | 0.0 |
| 15.04.2026 | 22:20 | 10.8 | 82 | 7.9 | 1020.1 | 0.4 | S | 0 | 0.0 |
| 15.04.2026 | 22:25 | 10.7 | 82 | 7.8 | 1020.1 | 0.0 | S | 0 | 0.0 |
| 15.04.2026 | 22:30 | 10.6 | 82 | 7.7 | 1020.2 | 0.0 | S | 0 | 0.0 |
| 15.04.2026 | 22:35 | 10.5 | 83 | 7.7 | 1020.2 | 0.0 | S | 0 | 0.0 |
| 15.04.2026 | 22:40 | 10.4 | 83 | 7.6 | 1020.2 | 0.0 | S | 0 | 0.0 |
| 15.04.2026 | 22:45 | 10.2 | 83 | 7.4 | 1020.2 | 0.0 | S | 0 | 0.0 |
| 15.04.2026 | 22:50 | 10.0 | 83 | 7.2 | 1020.2 | 0.0 | S | 0 | 0.0 |
| 15.04.2026 | 22:55 | 9.8 | 84 | 7.2 | 1020.2 | 0.0 | S | 0 | 0.0 |
| 15.04.2026 | 23:00 | 9.6 | 84 | 7.0 | 1020.3 | 0.0 | S | 0 | 0.0 |
| 15.04.2026 | 23:05 | 9.5 | 84 | 6.9 | 1020.3 | 0.0 | S | 0 | 0.0 |
| 15.04.2026 | 23:10 | 9.4 | 85 | 7.0 | 1020.3 | 0.0 | S | 0 | 0.0 |
| 15.04.2026 | 23:15 | 9.3 | 85 | 6.9 | 1020.3 | 0.0 | S | 0 | 0.0 |
| 15.04.2026 | 23:20 | 9.3 | 85 | 6.9 | 1020.2 | 0.0 | S | 0 | 0.0 |
| 15.04.2026 | 23:25 | 9.2 | 85 | 6.8 | 1020.3 | 0.0 | S | 0 | 0.0 |
| 15.04.2026 | 23:30 | 9.1 | 86 | 6.9 | 1020.3 | 0.0 | S | 0 | 0.0 |
| 15.04.2026 | 23:35 | 9.1 | 86 | 6.9 | 1020.3 | 0.0 | S | 0 | 0.0 |
| 15.04.2026 | 23:41 | 9.1 | 87 | 7.1 | 1020.4 | 0.0 | S | 0 | 0.0 |
| 15.04.2026 | 23:46 | 9.2 | 87 | 7.1 | 1020.4 | 0.0 | S | 0 | 0.0 |
| 15.04.2026 | 23:51 | 9.3 | 87 | 7.2 | 1020.5 | 0.0 | S | 0 | 0.0 |
| 15.04.2026 | 23:56 | 9.5 | 87 | 7.4 | 1020.4 | 0.0 | S | 0 | 0.0 |